sensor_id;sensor_type;location;lat;lon;timestamp;temperature;humidity
68485;DHT22;55472;50.060;21.960;2023-07-24T00:02:20;20.90;67.70
68485;DHT22;55472;50.060;21.960;2023-07-24T00:04:46;20.80;67.50
68485;DHT22;55472;50.060;21.960;2023-07-24T00:07:12;20.90;67.60
68485;DHT22;55472;50.060;21.960;2023-07-24T00:09:38;20.90;67.30
68485;DHT22;55472;50.060;21.960;2023-07-24T00:12:05;20.90;67.50
68485;DHT22;55472;50.060;21.960;2023-07-24T00:14:32;20.90;67.60
68485;DHT22;55472;50.060;21.960;2023-07-24T00:16:58;20.90;67.50
68485;DHT22;55472;50.060;21.960;2023-07-24T00:19:24;20.90;67.50
68485;DHT22;55472;50.060;21.960;2023-07-24T00:21:50;20.90;67.50
68485;DHT22;55472;50.060;21.960;2023-07-24T00:24:16;20.90;67.40
68485;DHT22;55472;50.060;21.960;2023-07-24T00:26:42;20.90;67.50
68485;DHT22;55472;50.060;21.960;2023-07-24T00:29:08;20.90;67.70
68485;DHT22;55472;50.060;21.960;2023-07-24T00:31:35;20.90;67.50
68485;DHT22;55472;50.060;21.960;2023-07-24T00:34:01;20.90;67.60
68485;DHT22;55472;50.060;21.960;2023-07-24T00:36:27;20.90;67.50
68485;DHT22;55472;50.060;21.960;2023-07-24T00:38:53;20.90;67.70
68485;DHT22;55472;50.060;21.960;2023-07-24T00:41:19;20.90;67.60
68485;DHT22;55472;50.060;21.960;2023-07-24T00:43:45;20.90;67.60
68485;DHT22;55472;50.060;21.960;2023-07-24T00:46:12;20.90;67.70
68485;DHT22;55472;50.060;21.960;2023-07-24T00:48:39;20.90;67.70
68485;DHT22;55472;50.060;21.960;2023-07-24T00:51:05;20.90;67.70
68485;DHT22;55472;50.060;21.960;2023-07-24T00:53:32;20.90;67.70
68485;DHT22;55472;50.060;21.960;2023-07-24T00:55:58;20.90;67.70
68485;DHT22;55472;50.060;21.960;2023-07-24T00:58:24;20.90;67.80
68485;DHT22;55472;50.060;21.960;2023-07-24T01:00:52;21.00;67.70
68485;DHT22;55472;50.060;21.960;2023-07-24T01:03:18;21.00;67.80
68485;DHT22;55472;50.060;21.960;2023-07-24T01:05:44;21.00;67.80
68485;DHT22;55472;50.060;21.960;2023-07-24T01:08:10;21.00;67.90
68485;DHT22;55472;50.060;21.960;2023-07-24T01:10:36;21.00;67.90
68485;DHT22;55472;50.060;21.960;2023-07-24T01:13:09;20.90;67.90
68485;DHT22;55472;50.060;21.960;2023-07-24T01:15:45;21.00;68.00
68485;DHT22;55472;50.060;21.960;2023-07-24T01:18:16;20.90;67.90
68485;DHT22;55472;50.060;21.960;2023-07-24T01:20:47;20.90;68.00
68485;DHT22;55472;50.060;21.960;2023-07-24T01:23:43;20.90;68.00
68485;DHT22;55472;50.060;21.960;2023-07-24T01:26:13;20.90;68.00
68485;DHT22;55472;50.060;21.960;2023-07-24T01:28:40;20.90;68.10
68485;DHT22;55472;50.060;21.960;2023-07-24T01:31:06;20.90;68.30
68485;DHT22;55472;50.060;21.960;2023-07-24T01:33:32;20.90;68.20
68485;DHT22;55472;50.060;21.960;2023-07-24T01:36:02;20.90;68.20
68485;DHT22;55472;50.060;21.960;2023-07-24T01:38:31;20.90;68.20
68485;DHT22;55472;50.060;21.960;2023-07-24T01:40:58;20.80;68.40
68485;DHT22;55472;50.060;21.960;2023-07-24T01:43:25;20.80;68.50
68485;DHT22;55472;50.060;21.960;2023-07-24T01:45:53;20.80;68.60
68485;DHT22;55472;50.060;21.960;2023-07-24T01:48:19;20.80;68.60
68485;DHT22;55472;50.060;21.960;2023-07-24T01:50:46;20.70;68.80
68485;DHT22;55472;50.060;21.960;2023-07-24T01:53:12;20.70;69.10
68485;DHT22;55472;50.060;21.960;2023-07-24T01:55:38;20.70;69.10
68485;DHT22;55472;50.060;21.960;2023-07-24T01:58:04;20.60;69.30
68485;DHT22;55472;50.060;21.960;2023-07-24T02:00:30;20.60;69.40
68485;DHT22;55472;50.060;21.960;2023-07-24T02:02:56;20.60;69.60
68485;DHT22;55472;50.060;21.960;2023-07-24T02:05:23;20.60;69.70
68485;DHT22;55472;50.060;21.960;2023-07-24T02:07:49;20.60;69.60
68485;DHT22;55472;50.060;21.960;2023-07-24T02:10:15;20.50;69.70
68485;DHT22;55472;50.060;21.960;2023-07-24T02:12:41;20.50;69.70
68485;DHT22;55472;50.060;21.960;2023-07-24T02:15:08;20.50;69.70
68485;DHT22;55472;50.060;21.960;2023-07-24T02:17:34;20.50;69.80
68485;DHT22;55472;50.060;21.960;2023-07-24T02:20:01;20.50;70.00
68485;DHT22;55472;50.060;21.960;2023-07-24T02:22:27;20.40;70.10
68485;DHT22;55472;50.060;21.960;2023-07-24T02:24:53;20.40;70.20
68485;DHT22;55472;50.060;21.960;2023-07-24T02:27:30;20.30;70.40
68485;DHT22;55472;50.060;21.960;2023-07-24T02:30:01;20.30;70.70
68485;DHT22;55472;50.060;21.960;2023-07-24T02:32:27;20.30;70.70
68485;DHT22;55472;50.060;21.960;2023-07-24T02:34:54;20.30;70.90
68485;DHT22;55472;50.060;21.960;2023-07-24T02:37:20;20.30;70.90
68485;DHT22;55472;50.060;21.960;2023-07-24T02:39:46;20.30;70.90
68485;DHT22;55472;50.060;21.960;2023-07-24T02:42:12;20.20;71.10
68485;DHT22;55472;50.060;21.960;2023-07-24T02:44:39;20.20;71.10
68485;DHT22;55472;50.060;21.960;2023-07-24T02:47:05;20.20;71.10
68485;DHT22;55472;50.060;21.960;2023-07-24T02:49:33;20.20;71.00
68485;DHT22;55472;50.060;21.960;2023-07-24T02:51:59;20.20;71.10
68485;DHT22;55472;50.060;21.960;2023-07-24T02:54:25;20.20;71.20
68485;DHT22;55472;50.060;21.960;2023-07-24T02:56:52;20.20;71.10
68485;DHT22;55472;50.060;21.960;2023-07-24T02:59:18;20.20;71.20
68485;DHT22;55472;50.060;21.960;2023-07-24T03:01:44;20.20;71.30
68485;DHT22;55472;50.060;21.960;2023-07-24T03:04:11;20.10;71.60
68485;DHT22;55472;50.060;21.960;2023-07-24T03:06:38;20.10;71.50
68485;DHT22;55472;50.060;21.960;2023-07-24T03:09:05;20.20;71.20
68485;DHT22;55472;50.060;21.960;2023-07-24T03:11:31;20.20;71.40
68485;DHT22;55472;50.060;21.960;2023-07-24T03:13:57;20.20;71.50
68485;DHT22;55472;50.060;21.960;2023-07-24T03:16:23;20.20;71.60
68485;DHT22;55472;50.060;21.960;2023-07-24T03:18:50;20.20;71.30
68485;DHT22;55472;50.060;21.960;2023-07-24T03:21:16;20.30;71.00
68485;DHT22;55472;50.060;21.960;2023-07-24T03:23:42;20.30;71.20
68485;DHT22;55472;50.060;21.960;2023-07-24T03:26:08;20.30;71.00
68485;DHT22;55472;50.060;21.960;2023-07-24T03:28:35;20.30;71.00
68485;DHT22;55472;50.060;21.960;2023-07-24T03:31:01;20.40;71.00
68485;DHT22;55472;50.060;21.960;2023-07-24T03:33:27;20.40;71.00
68485;DHT22;55472;50.060;21.960;2023-07-24T03:35:54;20.40;71.00
68485;DHT22;55472;50.060;21.960;2023-07-24T03:38:20;20.40;71.00
68485;DHT22;55472;50.060;21.960;2023-07-24T03:40:46;20.50;70.50
68485;DHT22;55472;50.060;21.960;2023-07-24T03:43:13;20.50;70.80
68485;DHT22;55472;50.060;21.960;2023-07-24T03:45:42;20.50;70.50
68485;DHT22;55472;50.060;21.960;2023-07-24T03:48:09;20.50;70.70
68485;DHT22;55472;50.060;21.960;2023-07-24T03:50:35;20.50;70.70
68485;DHT22;55472;50.060;21.960;2023-07-24T03:53:02;20.60;70.60
68485;DHT22;55472;50.060;21.960;2023-07-24T03:55:28;20.60;70.70
68485;DHT22;55472;50.060;21.960;2023-07-24T03:57:54;20.60;70.50
68485;DHT22;55472;50.060;21.960;2023-07-24T04:00:20;20.60;70.70
68485;DHT22;55472;50.060;21.960;2023-07-24T04:02:47;20.60;70.50
68485;DHT22;55472;50.060;21.960;2023-07-24T04:05:13;20.70;70.30
68485;DHT22;55472;50.060;21.960;2023-07-24T04:07:40;20.70;70.60
68485;DHT22;55472;50.060;21.960;2023-07-24T04:10:06;20.80;70.70
68485;DHT22;55472;50.060;21.960;2023-07-24T04:12:33;20.80;70.90
68485;DHT22;55472;50.060;21.960;2023-07-24T04:14:59;20.90;70.40
68485;DHT22;55472;50.060;21.960;2023-07-24T04:17:25;20.90;70.60
68485;DHT22;55472;50.060;21.960;2023-07-24T04:19:51;21.00;70.00
68485;DHT22;55472;50.060;21.960;2023-07-24T04:22:18;21.00;70.10
68485;DHT22;55472;50.060;21.960;2023-07-24T04:24:44;21.00;69.70
68485;DHT22;55472;50.060;21.960;2023-07-24T04:27:10;21.00;70.10
68485;DHT22;55472;50.060;21.960;2023-07-24T04:29:36;21.00;70.00
68485;DHT22;55472;50.060;21.960;2023-07-24T04:32:03;21.10;69.40
68485;DHT22;55472;50.060;21.960;2023-07-24T04:34:29;21.10;69.40
68485;DHT22;55472;50.060;21.960;2023-07-24T04:36:55;21.20;69.30
68485;DHT22;55472;50.060;21.960;2023-07-24T04:39:21;21.20;69.20
68485;DHT22;55472;50.060;21.960;2023-07-24T04:41:48;21.30;69.00
68485;DHT22;55472;50.060;21.960;2023-07-24T04:44:14;21.30;69.00
68485;DHT22;55472;50.060;21.960;2023-07-24T04:46:40;21.40;69.20
68485;DHT22;55472;50.060;21.960;2023-07-24T04:49:06;21.50;68.60
68485;DHT22;55472;50.060;21.960;2023-07-24T04:51:32;21.60;68.40
68485;DHT22;55472;50.060;21.960;2023-07-24T04:53:58;21.70;68.60
68485;DHT22;55472;50.060;21.960;2023-07-24T04:56:25;21.80;67.80
68485;DHT22;55472;50.060;21.960;2023-07-24T04:58:51;21.80;68.10
68485;DHT22;55472;50.060;21.960;2023-07-24T05:01:18;22.00;67.30
68485;DHT22;55472;50.060;21.960;2023-07-24T05:03:44;22.10;67.50
68485;DHT22;55472;50.060;21.960;2023-07-24T05:06:10;22.20;67.10
68485;DHT22;55472;50.060;21.960;2023-07-24T05:08:36;22.30;66.30
68485;DHT22;55472;50.060;21.960;2023-07-24T05:11:03;22.40;66.30
68485;DHT22;55472;50.060;21.960;2023-07-24T05:13:29;22.50;65.60
68485;DHT22;55472;50.060;21.960;2023-07-24T05:15:55;22.50;66.00
68485;DHT22;55472;50.060;21.960;2023-07-24T05:18:21;22.60;66.00
68485;DHT22;55472;50.060;21.960;2023-07-24T05:20:48;22.60;65.70
68485;DHT22;55472;50.060;21.960;2023-07-24T05:23:17;22.60;65.60
68485;DHT22;55472;50.060;21.960;2023-07-24T05:25:43;22.60;65.70
68485;DHT22;55472;50.060;21.960;2023-07-24T05:28:09;22.60;65.80
68485;DHT22;55472;50.060;21.960;2023-07-24T05:30:36;22.70;65.30
68485;DHT22;55472;50.060;21.960;2023-07-24T05:33:02;22.70;65.70
68485;DHT22;55472;50.060;21.960;2023-07-24T05:35:28;22.70;65.80
68485;DHT22;55472;50.060;21.960;2023-07-24T05:37:54;22.70;66.00
68485;DHT22;55472;50.060;21.960;2023-07-24T05:40:21;22.60;66.10
68485;DHT22;55472;50.060;21.960;2023-07-24T05:42:47;22.60;66.10
68485;DHT22;55472;50.060;21.960;2023-07-24T05:45:13;22.60;66.10
68485;DHT22;55472;50.060;21.960;2023-07-24T05:47:43;22.60;66.30
68485;DHT22;55472;50.060;21.960;2023-07-24T05:50:09;22.60;66.10
68485;DHT22;55472;50.060;21.960;2023-07-24T05:52:35;22.50;66.40
68485;DHT22;55472;50.060;21.960;2023-07-24T05:55:02;22.50;66.80
68485;DHT22;55472;50.060;21.960;2023-07-24T05:57:28;22.50;67.20
68485;DHT22;55472;50.060;21.960;2023-07-24T05:59:55;22.40;67.10
68485;DHT22;55472;50.060;21.960;2023-07-24T06:02:21;22.40;66.90
68485;DHT22;55472;50.060;21.960;2023-07-24T06:04:48;22.40;66.70
68485;DHT22;55472;50.060;21.960;2023-07-24T06:07:14;22.40;66.90
68485;DHT22;55472;50.060;21.960;2023-07-24T06:09:40;22.40;66.90
68485;DHT22;55472;50.060;21.960;2023-07-24T06:12:06;22.50;66.70
68485;DHT22;55472;50.060;21.960;2023-07-24T06:14:33;22.50;66.60
68485;DHT22;55472;50.060;21.960;2023-07-24T06:16:59;22.50;67.00
68485;DHT22;55472;50.060;21.960;2023-07-24T06:19:25;22.60;66.80
68485;DHT22;55472;50.060;21.960;2023-07-24T06:21:51;22.70;66.60
68485;DHT22;55472;50.060;21.960;2023-07-24T06:24:17;22.80;66.70
68485;DHT22;55472;50.060;21.960;2023-07-24T06:26:43;22.90;66.60
68485;DHT22;55472;50.060;21.960;2023-07-24T06:29:10;23.00;66.50
68485;DHT22;55472;50.060;21.960;2023-07-24T06:31:36;23.00;66.60
68485;DHT22;55472;50.060;21.960;2023-07-24T06:34:03;23.00;66.40
68485;DHT22;55472;50.060;21.960;2023-07-24T06:36:29;23.10;66.30
68485;DHT22;55472;50.060;21.960;2023-07-24T06:38:55;23.20;65.90
68485;DHT22;55472;50.060;21.960;2023-07-24T06:41:21;23.30;65.20
68485;DHT22;55472;50.060;21.960;2023-07-24T06:43:49;23.30;65.10
68485;DHT22;55472;50.060;21.960;2023-07-24T06:46:15;23.40;65.50
68485;DHT22;55472;50.060;21.960;2023-07-24T06:48:41;23.50;65.50
68485;DHT22;55472;50.060;21.960;2023-07-24T06:51:07;23.50;65.50
68485;DHT22;55472;50.060;21.960;2023-07-24T06:53:34;23.60;64.60
68485;DHT22;55472;50.060;21.960;2023-07-24T06:56:00;23.60;64.50
68485;DHT22;55472;50.060;21.960;2023-07-24T06:58:26;23.60;64.90
68485;DHT22;55472;50.060;21.960;2023-07-24T07:00:52;23.60;64.90
68485;DHT22;55472;50.060;21.960;2023-07-24T07:03:18;23.70;66.10
68485;DHT22;55472;50.060;21.960;2023-07-24T07:05:44;23.80;66.10
68485;DHT22;55472;50.060;21.960;2023-07-24T07:08:11;23.80;65.70
68485;DHT22;55472;50.060;21.960;2023-07-24T07:10:37;23.90;64.90
68485;DHT22;55472;50.060;21.960;2023-07-24T07:13:03;23.90;65.00
68485;DHT22;55472;50.060;21.960;2023-07-24T07:15:30;24.00;65.20
68485;DHT22;55472;50.060;21.960;2023-07-24T07:17:56;24.00;65.50
68485;DHT22;55472;50.060;21.960;2023-07-24T07:20:22;24.00;65.00
68485;DHT22;55472;50.060;21.960;2023-07-24T07:22:48;24.10;65.30
68485;DHT22;55472;50.060;21.960;2023-07-24T07:25:15;24.10;65.20
68485;DHT22;55472;50.060;21.960;2023-07-24T07:27:42;24.30;64.70
68485;DHT22;55472;50.060;21.960;2023-07-24T07:30:08;24.50;64.90
68485;DHT22;55472;50.060;21.960;2023-07-24T07:32:35;24.70;64.20
68485;DHT22;55472;50.060;21.960;2023-07-24T07:35:01;25.00;63.40
68485;DHT22;55472;50.060;21.960;2023-07-24T07:37:27;25.30;62.60
68485;DHT22;55472;50.060;21.960;2023-07-24T07:39:53;25.50;61.90
68485;DHT22;55472;50.060;21.960;2023-07-24T07:42:19;25.70;62.80
68485;DHT22;55472;50.060;21.960;2023-07-24T07:44:46;25.90;62.10
68485;DHT22;55472;50.060;21.960;2023-07-24T07:47:12;26.00;61.30
68485;DHT22;55472;50.060;21.960;2023-07-24T07:49:38;26.10;60.60
68485;DHT22;55472;50.060;21.960;2023-07-24T07:52:06;26.20;60.80
68485;DHT22;55472;50.060;21.960;2023-07-24T07:54:32;26.20;61.10
68485;DHT22;55472;50.060;21.960;2023-07-24T07:56:58;26.30;60.50
68485;DHT22;55472;50.060;21.960;2023-07-24T07:59:24;26.40;60.40
68485;DHT22;55472;50.060;21.960;2023-07-24T08:01:50;26.40;60.40
68485;DHT22;55472;50.060;21.960;2023-07-24T08:04:16;26.50;60.20
68485;DHT22;55472;50.060;21.960;2023-07-24T08:06:44;26.60;58.80
68485;DHT22;55472;50.060;21.960;2023-07-24T08:09:10;26.60;58.90
68485;DHT22;55472;50.060;21.960;2023-07-24T08:11:36;26.80;59.00
68485;DHT22;55472;50.060;21.960;2023-07-24T08:14:02;26.90;58.40
68485;DHT22;55472;50.060;21.960;2023-07-24T08:16:28;27.00;58.70
68485;DHT22;55472;50.060;21.960;2023-07-24T08:18:54;27.10;58.50
68485;DHT22;55472;50.060;21.960;2023-07-24T08:21:21;27.20;57.80
68485;DHT22;55472;50.060;21.960;2023-07-24T08:23:47;27.30;58.30
68485;DHT22;55472;50.060;21.960;2023-07-24T08:26:13;27.50;57.70
68485;DHT22;55472;50.060;21.960;2023-07-24T08:28:39;27.60;57.60
68485;DHT22;55472;50.060;21.960;2023-07-24T08:31:08;27.70;58.30
68485;DHT22;55472;50.060;21.960;2023-07-24T08:33:34;27.90;58.20
68485;DHT22;55472;50.060;21.960;2023-07-24T08:36:05;28.10;57.80
68485;DHT22;55472;50.060;21.960;2023-07-24T08:38:34;28.10;57.50
68485;DHT22;55472;50.060;21.960;2023-07-24T08:41:09;28.30;56.90
68485;DHT22;55472;50.060;21.960;2023-07-24T08:43:40;28.40;56.50
68485;DHT22;55472;50.060;21.960;2023-07-24T08:46:08;28.50;56.70
68485;DHT22;55472;50.060;21.960;2023-07-24T08:48:42;28.70;56.30
68485;DHT22;55472;50.060;21.960;2023-07-24T08:51:14;28.90;56.50
68485;DHT22;55472;50.060;21.960;2023-07-24T08:53:50;29.10;55.10
68485;DHT22;55472;50.060;21.960;2023-07-24T08:56:16;29.30;55.30
68485;DHT22;55472;50.060;21.960;2023-07-24T08:58:42;29.50;54.90
68485;DHT22;55472;50.060;21.960;2023-07-24T09:01:09;29.60;53.30
68485;DHT22;55472;50.060;21.960;2023-07-24T09:03:35;30.00;53.70
68485;DHT22;55472;50.060;21.960;2023-07-24T09:06:02;30.40;52.70
68485;DHT22;55472;50.060;21.960;2023-07-24T09:08:42;31.20;50.80
68485;DHT22;55472;50.060;21.960;2023-07-24T09:11:10;32.30;48.30
68485;DHT22;55472;50.060;21.960;2023-07-24T09:13:41;33.30;46.90
68485;DHT22;55472;50.060;21.960;2023-07-24T09:16:09;34.40;45.30
68485;DHT22;55472;50.060;21.960;2023-07-24T09:18:46;35.30;43.50
68485;DHT22;55472;50.060;21.960;2023-07-24T09:21:12;36.50;42.80
68485;DHT22;55472;50.060;21.960;2023-07-24T09:23:38;37.30;40.70
68485;DHT22;55472;50.060;21.960;2023-07-24T09:26:09;38.20;40.00
68485;DHT22;55472;50.060;21.960;2023-07-24T09:28:35;39.10;39.30
68485;DHT22;55472;50.060;21.960;2023-07-24T09:31:02;39.90;37.10
68485;DHT22;55472;50.060;21.960;2023-07-24T09:33:37;40.60;36.30
68485;DHT22;55472;50.060;21.960;2023-07-24T09:36:05;41.10;36.30
68485;DHT22;55472;50.060;21.960;2023-07-24T09:38:39;41.50;36.40
68485;DHT22;55472;50.060;21.960;2023-07-24T09:41:06;42.10;35.20
68485;DHT22;55472;50.060;21.960;2023-07-24T09:43:33;42.50;34.60
68485;DHT22;55472;50.060;21.960;2023-07-24T09:46:04;42.70;34.90
68485;DHT22;55472;50.060;21.960;2023-07-24T09:48:36;42.70;35.30
68485;DHT22;55472;50.060;21.960;2023-07-24T09:51:02;43.40;33.80
68485;DHT22;55472;50.060;21.960;2023-07-24T09:53:46;43.20;33.50
68485;DHT22;55472;50.060;21.960;2023-07-24T09:56:17;42.40;34.10
68485;DHT22;55472;50.060;21.960;2023-07-24T09:58:44;41.50;35.00
68485;DHT22;55472;50.060;21.960;2023-07-24T10:01:11;40.70;36.30
68485;DHT22;55472;50.060;21.960;2023-07-24T10:03:46;39.80;37.60
68485;DHT22;55472;50.060;21.960;2023-07-24T10:06:13;39.00;37.90
68485;DHT22;55472;50.060;21.960;2023-07-24T10:08:41;38.80;38.30
68485;DHT22;55472;50.060;21.960;2023-07-24T10:11:12;38.70;37.80
68485;DHT22;55472;50.060;21.960;2023-07-24T10:13:40;38.80;38.60
68485;DHT22;55472;50.060;21.960;2023-07-24T10:16:07;39.10;38.80
68485;DHT22;55472;50.060;21.960;2023-07-24T10:18:35;39.40;37.90
68485;DHT22;55472;50.060;21.960;2023-07-24T10:21:10;39.40;37.80
68485;DHT22;55472;50.060;21.960;2023-07-24T10:23:44;39.10;36.90
68485;DHT22;55472;50.060;21.960;2023-07-24T10:26:12;38.50;37.60
68485;DHT22;55472;50.060;21.960;2023-07-24T10:28:41;37.80;39.00
68485;DHT22;55472;50.060;21.960;2023-07-24T10:31:24;37.20;39.40
68485;DHT22;55472;50.060;21.960;2023-07-24T10:33:54;36.50;41.30
68485;DHT22;55472;50.060;21.960;2023-07-24T10:36:22;36.00;42.90
68485;DHT22;55472;50.060;21.960;2023-07-24T10:38:56;35.60;43.80
68485;DHT22;55472;50.060;21.960;2023-07-24T10:41:22;35.50;43.50
68485;DHT22;55472;50.060;21.960;2023-07-24T10:43:59;35.40;44.20
68485;DHT22;55472;50.060;21.960;2023-07-24T10:46:39;35.50;44.20
68485;DHT22;55472;50.060;21.960;2023-07-24T10:49:07;35.30;44.20
68485;DHT22;55472;50.060;21.960;2023-07-24T10:51:34;35.20;44.50
68485;DHT22;55472;50.060;21.960;2023-07-24T10:54:04;35.40;44.10
68485;DHT22;55472;50.060;21.960;2023-07-24T10:56:31;35.50;44.20
68485;DHT22;55472;50.060;21.960;2023-07-24T10:59:03;35.50;43.20
68485;DHT22;55472;50.060;21.960;2023-07-24T11:01:31;35.50;43.70
68485;DHT22;55472;50.060;21.960;2023-07-24T11:03:58;35.40;44.70
68485;DHT22;55472;50.060;21.960;2023-07-24T11:06:25;35.40;43.80
68485;DHT22;55472;50.060;21.960;2023-07-24T11:08:55;35.30;44.60
68485;DHT22;55472;50.060;21.960;2023-07-24T11:11:31;35.20;45.30
68485;DHT22;55472;50.060;21.960;2023-07-24T11:13:58;35.30;45.40
68485;DHT22;55472;50.060;21.960;2023-07-24T11:16:25;35.30;44.70
68485;DHT22;55472;50.060;21.960;2023-07-24T11:18:51;35.20;44.80
68485;DHT22;55472;50.060;21.960;2023-07-24T11:21:18;34.90;45.30
68485;DHT22;55472;50.060;21.960;2023-07-24T11:23:49;34.70;45.20
68485;DHT22;55472;50.060;21.960;2023-07-24T11:26:24;34.60;45.70
68485;DHT22;55472;50.060;21.960;2023-07-24T11:28:52;34.30;47.30
68485;DHT22;55472;50.060;21.960;2023-07-24T11:31:19;33.90;47.50
68485;DHT22;55472;50.060;21.960;2023-07-24T11:33:47;33.60;47.60
68485;DHT22;55472;50.060;21.960;2023-07-24T11:36:14;33.40;48.70
68485;DHT22;55472;50.060;21.960;2023-07-24T11:38:41;33.30;49.50
68485;DHT22;55472;50.060;21.960;2023-07-24T11:41:08;33.40;48.90
68485;DHT22;55472;50.060;21.960;2023-07-24T11:43:35;33.30;48.50
68485;DHT22;55472;50.060;21.960;2023-07-24T11:46:01;33.40;49.20
68485;DHT22;55472;50.060;21.960;2023-07-24T11:48:27;33.40;48.90
68485;DHT22;55472;50.060;21.960;2023-07-24T11:50:55;33.30;49.20
68485;DHT22;55472;50.060;21.960;2023-07-24T11:53:29;33.10;49.90
68485;DHT22;55472;50.060;21.960;2023-07-24T11:55:58;33.00;50.50
68485;DHT22;55472;50.060;21.960;2023-07-24T11:58:28;33.00;50.30
68485;DHT22;55472;50.060;21.960;2023-07-24T12:00:56;33.00;49.80
68485;DHT22;55472;50.060;21.960;2023-07-24T12:03:24;32.90;50.10
68485;DHT22;55472;50.060;21.960;2023-07-24T12:05:52;32.90;50.50
68485;DHT22;55472;50.060;21.960;2023-07-24T12:08:30;32.80;50.50
68485;DHT22;55472;50.060;21.960;2023-07-24T12:10:58;32.80;49.70
68485;DHT22;55472;50.060;21.960;2023-07-24T12:13:24;32.70;50.30
68485;DHT22;55472;50.060;21.960;2023-07-24T12:15:50;32.70;50.90
68485;DHT22;55472;50.060;21.960;2023-07-24T12:18:16;32.50;51.10
68485;DHT22;55472;50.060;21.960;2023-07-24T12:20:42;32.40;52.00
68485;DHT22;55472;50.060;21.960;2023-07-24T12:23:08;32.20;53.00
68485;DHT22;55472;50.060;21.960;2023-07-24T12:25:35;32.00;53.10
68485;DHT22;55472;50.060;21.960;2023-07-24T12:28:01;31.70;53.80
68485;DHT22;55472;50.060;21.960;2023-07-24T12:30:28;31.50;54.50
68485;DHT22;55472;50.060;21.960;2023-07-24T12:32:54;31.40;55.70
68485;DHT22;55472;50.060;21.960;2023-07-24T12:35:20;31.40;56.70
68485;DHT22;55472;50.060;21.960;2023-07-24T12:37:46;31.40;55.90
68485;DHT22;55472;50.060;21.960;2023-07-24T12:40:12;31.40;56.60
68485;DHT22;55472;50.060;21.960;2023-07-24T12:42:39;31.40;56.20
68485;DHT22;55472;50.060;21.960;2023-07-24T12:45:07;31.40;56.40
68485;DHT22;55472;50.060;21.960;2023-07-24T12:47:33;31.50;56.30
68485;DHT22;55472;50.060;21.960;2023-07-24T12:50:00;31.50;56.10
68485;DHT22;55472;50.060;21.960;2023-07-24T12:52:26;31.50;56.20
68485;DHT22;55472;50.060;21.960;2023-07-24T12:54:54;31.50;57.10
68485;DHT22;55472;50.060;21.960;2023-07-24T12:57:20;31.50;55.80
68485;DHT22;55472;50.060;21.960;2023-07-24T12:59:46;31.50;56.20
68485;DHT22;55472;50.060;21.960;2023-07-24T13:02:12;31.50;55.90
68485;DHT22;55472;50.060;21.960;2023-07-24T13:04:39;31.40;57.30
68485;DHT22;55472;50.060;21.960;2023-07-24T13:07:05;31.50;57.60
68485;DHT22;55472;50.060;21.960;2023-07-24T13:09:31;31.50;57.00
68485;DHT22;55472;50.060;21.960;2023-07-24T13:11:57;31.50;55.90
68485;DHT22;55472;50.060;21.960;2023-07-24T13:14:24;31.50;54.90
68485;DHT22;55472;50.060;21.960;2023-07-24T13:16:50;31.50;56.50
68485;DHT22;55472;50.060;21.960;2023-07-24T13:19:17;31.40;57.50
68485;DHT22;55472;50.060;21.960;2023-07-24T13:21:43;31.50;58.10
68485;DHT22;55472;50.060;21.960;2023-07-24T13:24:10;31.40;58.40
68485;DHT22;55472;50.060;21.960;2023-07-24T13:26:36;31.40;57.50
68485;DHT22;55472;50.060;21.960;2023-07-24T13:29:06;31.20;57.60
68485;DHT22;55472;50.060;21.960;2023-07-24T13:31:32;31.10;58.00
68485;DHT22;55472;50.060;21.960;2023-07-24T13:33:59;31.00;58.90
68485;DHT22;55472;50.060;21.960;2023-07-24T13:36:25;30.90;58.60
68485;DHT22;55472;50.060;21.960;2023-07-24T13:38:52;30.80;58.80
68485;DHT22;55472;50.060;21.960;2023-07-24T13:41:18;30.70;59.20
68485;DHT22;55472;50.060;21.960;2023-07-24T13:43:44;30.70;59.60
68485;DHT22;55472;50.060;21.960;2023-07-24T13:46:10;30.70;59.40
68485;DHT22;55472;50.060;21.960;2023-07-24T13:48:37;30.60;60.20
68485;DHT22;55472;50.060;21.960;2023-07-24T13:51:03;30.60;60.90
68485;DHT22;55472;50.060;21.960;2023-07-24T13:53:29;30.50;62.30
68485;DHT22;55472;50.060;21.960;2023-07-24T13:55:55;30.50;62.20
68485;DHT22;55472;50.060;21.960;2023-07-24T13:58:21;30.50;62.00
68485;DHT22;55472;50.060;21.960;2023-07-24T14:00:47;30.50;61.10
68485;DHT22;55472;50.060;21.960;2023-07-24T14:03:14;30.40;60.60
68485;DHT22;55472;50.060;21.960;2023-07-24T14:05:40;30.30;61.20
68485;DHT22;55472;50.060;21.960;2023-07-24T14:08:07;30.40;62.70
68485;DHT22;55472;50.060;21.960;2023-07-24T14:10:33;30.40;62.80
68485;DHT22;55472;50.060;21.960;2023-07-24T14:13:00;30.40;63.50
68485;DHT22;55472;50.060;21.960;2023-07-24T14:15:26;30.30;64.00
68485;DHT22;55472;50.060;21.960;2023-07-24T14:17:52;30.30;63.40
68485;DHT22;55472;50.060;21.960;2023-07-24T14:20:18;30.20;63.20
68485;DHT22;55472;50.060;21.960;2023-07-24T14:22:44;30.20;63.30
68485;DHT22;55472;50.060;21.960;2023-07-24T14:25:10;30.20;63.40
68485;DHT22;55472;50.060;21.960;2023-07-24T14:27:37;30.20;62.40
68485;DHT22;55472;50.060;21.960;2023-07-24T14:30:08;30.20;62.30
68485;DHT22;55472;50.060;21.960;2023-07-24T14:32:36;30.10;63.40
68485;DHT22;55472;50.060;21.960;2023-07-24T14:35:02;30.00;63.00
68485;DHT22;55472;50.060;21.960;2023-07-24T14:37:28;30.00;62.60
68485;DHT22;55472;50.060;21.960;2023-07-24T14:39:54;29.90;62.90
68485;DHT22;55472;50.060;21.960;2023-07-24T14:42:21;29.80;64.20
68485;DHT22;55472;50.060;21.960;2023-07-24T14:44:47;29.80;63.50
68485;DHT22;55472;50.060;21.960;2023-07-24T14:47:13;29.90;63.10
68485;DHT22;55472;50.060;21.960;2023-07-24T14:49:40;29.90;62.70
68485;DHT22;55472;50.060;21.960;2023-07-24T14:52:07;29.90;62.70
68485;DHT22;55472;50.060;21.960;2023-07-24T14:54:33;29.90;60.00
68485;DHT22;55472;50.060;21.960;2023-07-24T14:56:59;29.80;60.20
68485;DHT22;55472;50.060;21.960;2023-07-24T14:59:28;29.80;61.30
68485;DHT22;55472;50.060;21.960;2023-07-24T15:01:54;29.70;61.40
68485;DHT22;55472;50.060;21.960;2023-07-24T15:04:20;29.60;62.10
68485;DHT22;55472;50.060;21.960;2023-07-24T15:06:47;29.40;62.50
68485;DHT22;55472;50.060;21.960;2023-07-24T15:09:13;29.30;62.40
68485;DHT22;55472;50.060;21.960;2023-07-24T15:11:40;29.20;63.10
68485;DHT22;55472;50.060;21.960;2023-07-24T15:14:05;29.20;63.90
68485;DHT22;55472;50.060;21.960;2023-07-24T15:16:32;29.10;64.50